Thunderstorms From: 23-05-2018 15:04 Until: 24-05-2018 15:00 warning for: Thunderstorms Level: Yellow info button

Although rather usual in this region, locally or potentially dangerous phenomena are expected. (such as local winds, summer thunderstorms, rising streams or high waves) Be aware and pay attention to the latest weather updates, especially if you carry out activities exposed to weather or close to a stream or shoreline. 


Meteo18 Weather Cam more information Meteo18 Weather Cam


warning for Thunderstorms more information blitzortung!


Rain radar more information rain snow radar


Visit our other weather sites:

Template documentation
and downloads

And another site



Weather Underground History page Text

Daily Summary for December 14, 2017 Units:  Metric    English   Both
« Previous Day
Next Day »
Daily Weekly Monthly Yearly Custom
  High: Low: Average:
Temperature: -17.8 °C -15.5 °C -14.1 °C
Dew Point: -17.8 °C -16.2 °C -15.2 °C
Humidity: Humidity % 76 % 87 %
Wind Speed: 0 km/h 2.6 km/h 23.7 km/h
Wind Gust: 0 km/h - -
Wind:- - WSW
Pressure: 0 hPa 33809.2 hPa -
Precipitation: 360.68 mm    
Historical Graphs
 
 
Tabular Data for December 14, 2017
Time Temperature Dew Point Pressure Wind Wind Speed Wind Gust Humidity Rainfall Rate (Hourly)
-17.8 °C -17.8 °C 0 hPa Calm     Humidity % 0 mm
00:02 -12.3 °C -13.3 °C 34005.6 hPa WSW 38.8 km/h 67.3 km/h 88 % 0 mm
00:12 -12.3 °C -13.5 °C 34015.8 hPa WSW 33.6 km/h 69.8 km/h 87 % 0 mm
00:32 -12.4 °C -13.7 °C 34029.3 hPa WSW 33.6 km/h 75.2 km/h 85 % 0 mm
00:37 -12.4 °C -13.8 °C 34029.3 hPa West 62.1 km/h 75.2 km/h 84 % 0 mm
00:42 -12.4 °C -13.9 °C 34029.3 hPa West 36.2 km/h 75.2 km/h 83 % 0 mm
00:52 -12.4 °C -14.1 °C 34029.3 hPa West 44.1 km/h 85.5 km/h 82 % 0 mm
01:02 -12.6 °C -14.1 °C 34039.5 hPa WSW 41.4 km/h 75.2 km/h 83 % 0 mm
01:07 -12.6 °C -14.3 °C 34029.3 hPa WNW 41.4 km/h 69.8 km/h 81 % 0 mm
01:17 -12.6 °C -14.3 °C 34039.5 hPa West 57 km/h 82.9 km/h 81 % 0 mm
01:22 -12.6 °C -14.3 °C 34039.5 hPa West 33.6 km/h 82.9 km/h 81 % 0 mm
01:32 -12.7 °C -14.5 °C 34039.5 hPa WSW 18.2 km/h 82.9 km/h 80 % 0 mm
01:37 -12.7 °C -14.4 °C 34049.6 hPa West 44.1 km/h 72.6 km/h 81 % 0 mm
01:42 -12.7 °C -14.4 °C 34049.6 hPa West 36.2 km/h 80.3 km/h 81 % 0 mm
01:52 -12.7 °C -14.6 °C 34049.6 hPa West 41.4 km/h 80.3 km/h 80 % 0 mm
02:02 -12.8 °C -14.6 °C 34049.6 hPa WSW 44.1 km/h 72.6 km/h 80 % 0 mm
02:07 -12.8 °C -14.6 °C 34049.6 hPa SW 23.3 km/h 72.6 km/h 80 % 0 mm
02:12 -12.8 °C -14.5 °C 34049.6 hPa West 36.2 km/h 69.8 km/h 81 % 0 mm
02:17 -12.8 °C -14.4 °C 34049.6 hPa West 41.4 km/h 69.8 km/h 82 % 0 mm
02:32 -12.8 °C -14.3 °C 34049.6 hPa West 38.8 km/h 64.7 km/h 84 % 0 mm
02:37 -12.9 °C -14.3 °C 34049.6 hPa West 36.2 km/h 64.7 km/h 85 % 0 mm
02:42 -13 °C -14.1 °C 34049.6 hPa WNW 28.5 km/h 64.7 km/h 87 % 7.62 mm
02:47 -13.1 °C -14.2 °C 34063.2 hPa West 25.9 km/h 75.2 km/h 87 % 7.62 mm
02:52 -13.2 °C -14.2 °C 34063.2 hPa West 20.8 km/h 75.2 km/h 88 % 12.7 mm
02:57 -13.2 °C -14.2 °C 34063.2 hPa WNW 18.2 km/h 75.2 km/h 89 % 12.7 mm
03:02 -13.3 °C -14.1 °C 34063.2 hPa West 18.2 km/h 51.8 km/h 90 % 12.7 mm
03:12 -13.2 °C -14.3 °C 34073.3 hPa West 38.8 km/h 80.3 km/h 88 % 25.4 mm
03:32 -13.3 °C -14.7 °C 34086.9 hPa West 31.1 km/h 82.9 km/h 85 % 25.4 mm
03:37 -13.4 °C -15 °C 34086.9 hPa WNW 23.3 km/h 77.7 km/h 82 % 25.4 mm
03:42 -13.4 °C -15.2 °C 34086.9 hPa WSW 33.6 km/h 77.7 km/h 80 % 20.32 mm
03:47 -13.4 °C -15.4 °C 34086.9 hPa West 20.8 km/h 77.7 km/h 78 % 20.32 mm
03:52 -13.4 °C -15.6 °C 34097 hPa WNW 36.2 km/h 67.3 km/h 77 % 12.7 mm
03:57 -13.5 °C -15.7 °C 34097 hPa WNW 41.4 km/h 57 km/h 76 % 12.7 mm
04:02 -13.6 °C -15.8 °C 34097 hPa West 31.1 km/h 57 km/h 76 % 7.62 mm
04:22 -13.8 °C -15.4 °C 34107.2 hPa West 33.6 km/h 59.5 km/h 81 % 0 mm
04:27 -13.8 °C -15.4 °C 34107.2 hPa West 36.2 km/h 59.5 km/h 82 % 0 mm
04:32 -13.8 °C -15.3 °C 34120.7 hPa West 15.6 km/h 49.2 km/h 83 % 0 mm
04:37 -13.9 °C -15.3 °C 34120.7 hPa West 23.3 km/h 44.1 km/h 84 % 0 mm
04:47 -13.9 °C -15.3 °C 34130.9 hPa WSW 20.8 km/h 41.4 km/h 84 % 0 mm
04:52 -13.8 °C -15.2 °C 34130.9 hPa West 38.8 km/h 41.4 km/h 84 % 0 mm
05:02 -13.8 °C -15.3 °C 34120.7 hPa West 41.4 km/h 51.8 km/h 83 % 0 mm
05:12 -13.8 °C -15.2 °C 34120.7 hPa WSW 15.6 km/h 57 km/h 84 % 0 mm
05:22 -13.9 °C -15.4 °C 34107.2 hPa West 20.8 km/h 44.1 km/h 83 % 0 mm
05:42 -14.1 °C -15.8 °C 34130.9 hPa WSW 15.6 km/h 44.1 km/h 80 % 0 mm
05:47 -14 °C -16 °C 34130.9 hPa West 20.8 km/h 46.7 km/h 78 % 0 mm
05:57 -14.2 °C -15.9 °C 34120.7 hPa NW 12.9 km/h 72.6 km/h 81 % 0 mm
06:02 -14.3 °C -15.8 °C 34130.9 hPa West 25.9 km/h 72.6 km/h 83 % 7.62 mm
06:12 -14.4 °C -15.8 °C 34130.9 hPa WSW 28.5 km/h 62.1 km/h 84 % 7.62 mm
06:17 -14.5 °C -15.9 °C 34130.9 hPa West 15.6 km/h 44.1 km/h 84 % 7.62 mm
06:27 -14.6 °C -15.8 °C 34130.9 hPa West 12.9 km/h 36.2 km/h 85 % 7.62 mm
06:47 -14.6 °C -15.8 °C 34130.9 hPa WSW 18.2 km/h 36.2 km/h 86 % 7.62 mm
06:52 -14.6 °C -15.8 °C 34130.9 hPa WSW 18.2 km/h 36.2 km/h 86 % 7.62 mm
06:57 -14.6 °C -15.8 °C 34130.9 hPa West 33.6 km/h 36.2 km/h 85 % 0 mm
07:02 -14.6 °C -15.8 °C 34130.9 hPa WSW 12.9 km/h 36.2 km/h 85 % 0 mm
07:12 -14.6 °C -15.8 °C 34120.7 hPa West 23.3 km/h 38.8 km/h 85 % 0 mm
07:17 -14.6 °C -15.8 °C 34120.7 hPa West 5.1 km/h 33.6 km/h 85 % 0 mm
07:32 -14.6 °C -15.8 °C 34120.7 hPa WSW 15.6 km/h 36.2 km/h 85 % 0 mm
07:52 -14.8 °C -16 °C 34120.7 hPa SW 23.3 km/h 41.4 km/h 86 % 0 mm
08:02 -14.8 °C -15.9 °C 34120.7 hPa WSW 15.6 km/h 28.5 km/h 87 % 0 mm
08:17 -14.8 °C -15.8 °C 34120.7 hPa SW 36.2 km/h 36.2 km/h 88 % 0 mm
08:27 -14.7 °C -15.8 °C 34120.7 hPa SSW 23.3 km/h 41.4 km/h 87 % 0 mm
08:37 -14.7 °C -15.8 °C 34120.7 hPa South 12.9 km/h 41.4 km/h 87 % 0 mm
08:47 -14.8 °C -15.8 °C 34120.7 hPa WSW 10.3 km/h 36.2 km/h 88 % 0 mm
08:57 -14.7 °C -15.8 °C 34120.7 hPa WSW 28.5 km/h 38.8 km/h 87 % 0 mm
09:02 -14.7 °C -15.9 °C 34120.7 hPa WSW 23.3 km/h 46.7 km/h 86 % 0 mm
09:37 -14.8 °C -15.9 °C 34120.7 hPa SW 18.2 km/h 33.6 km/h 87 % 0 mm
09:42 -14.7 °C -15.7 °C 34120.7 hPa WSW 20.8 km/h 33.6 km/h 88 % 0 mm
09:47 -14.7 °C -15.7 °C 34120.7 hPa SW 15.6 km/h 28.5 km/h 88 % 0 mm
10:02 -14.6 °C -15.6 °C 34107.2 hPa SW 20.8 km/h 38.8 km/h 89 % 0 mm
10:12 -14.6 °C -15.5 °C 34107.2 hPa WSW 20.8 km/h 38.8 km/h 89 % 0 mm
10:22 -14.4 °C -15.3 °C 34107.2 hPa SW 31.1 km/h 36.2 km/h 89 % 0 mm
10:27 -14.4 °C -15.3 °C 34107.2 hPa SW 38.8 km/h 38.8 km/h 89 % 0 mm
10:32 -14.3 °C -15.2 °C 34107.2 hPa WSW 25.9 km/h 38.8 km/h 90 % 0 mm
10:42 -14.3 °C -15.1 °C 34107.2 hPa SW 31.1 km/h 46.7 km/h 90 % 0 mm
10:52 -14.2 °C -15.1 °C 34107.2 hPa SW 25.9 km/h 54.4 km/h 90 % 0 mm
10:57 -14.1 °C -14.9 °C 34107.2 hPa SW 23.3 km/h 54.4 km/h 90 % 7.62 mm
11:02 -14.1 °C -15 °C 34107.2 hPa SW 18.2 km/h 54.4 km/h 89 % 7.62 mm
11:12 -14 °C -14.9 °C 34107.2 hPa West 15.6 km/h 46.7 km/h 89 % 7.62 mm
11:17 -13.9 °C -14.9 °C 34097 hPa WSW 33.6 km/h 46.7 km/h 88 % 7.62 mm
11:22 -13.8 °C -14.9 °C 34097 hPa WSW 28.5 km/h 46.7 km/h 88 % 7.62 mm
11:27 -13.8 °C -14.9 °C 34086.9 hPa SW 23.3 km/h 46.7 km/h 88 % 7.62 mm
11:37 -13.8 °C -14.8 °C 34086.9 hPa West 7.7 km/h 38.8 km/h 88 % 7.62 mm
11:42 -13.8 °C -14.8 °C 34073.3 hPa SSW 25.9 km/h 36.2 km/h 88 % 7.62 mm
11:52 -13.7 °C -14.8 °C 34073.3 hPa WSW 23.3 km/h 49.2 km/h 88 % 7.62 mm
11:57 -13.7 °C -14.8 °C 34063.2 hPa SSW 28.5 km/h 49.2 km/h 88 % 0 mm
12:02 -13.7 °C -14.7 °C 34063.2 hPa WSW 25.9 km/h 44.1 km/h 88 % 0 mm
12:12 -13.7 °C -14.7 °C 34049.6 hPa SW 20.8 km/h 41.4 km/h 88 % 0 mm
12:17 -13.7 °C -14.7 °C 34039.5 hPa SSW 18.2 km/h 46.7 km/h 88 % 0 mm
12:27 -13.5 °C -14.6 °C 34029.3 hPa SW 28.5 km/h 49.2 km/h 88 % 0 mm
12:32 -13.4 °C -14.6 °C 34029.3 hPa SW 36.2 km/h 49.2 km/h 87 % 0 mm
12:37 -13.4 °C -14.7 °C 34029.3 hPa SSW 31.1 km/h 49.2 km/h 86 % 0 mm
12:42 -13.4 °C -14.7 °C 34029.3 hPa West 33.6 km/h 49.2 km/h 85 % 0 mm
12:47 -13.4 °C -14.8 °C 34015.8 hPa WSW 18.2 km/h 51.8 km/h 84 % 0 mm
12:52 -13.4 °C -14.9 °C 34015.8 hPa SW 46.7 km/h 51.8 km/h 83 % 0 mm
13:02 -13.3 °C -14.8 °C 34015.8 hPa West 25.9 km/h 51.8 km/h 83 % 0 mm
13:12 -13.3 °C -14.8 °C 33992.1 hPa WSW 15.6 km/h 49.2 km/h 83 % 0 mm
13:17 -13.3 °C -14.7 °C 33992.1 hPa SW 31.1 km/h 51.8 km/h 84 % 0 mm
13:22 -13.3 °C -14.6 °C 33992.1 hPa WSW 23.3 km/h 51.8 km/h 85 % 0 mm
13:37 -13.3 °C -14.6 °C 33981.9 hPa SSW 23.3 km/h 51.8 km/h 86 % 0 mm
13:47 -13.4 °C -14.5 °C 33971.7 hPa WSW 20.8 km/h 44.1 km/h 87 % 0 mm
13:52 -13.4 °C -14.5 °C 33958.2 hPa SW 33.6 km/h 44.1 km/h 88 % 0 mm
13:57 -13.5 °C -14.6 °C 33958.2 hPa SW 38.8 km/h 44.1 km/h 88 % 0 mm
14:02 -13.5 °C -14.6 °C 33958.2 hPa SW 18.2 km/h 44.1 km/h 88 % 7.62 mm
14:12 -13.6 °C -14.4 °C 33958.2 hPa WSW 23.3 km/h 57 km/h 90 % 12.7 mm
14:17 -13.7 °C -14.5 °C 33948 hPa SW 51.8 km/h 51.8 km/h 90 % 12.7 mm
14:22 -13.6 °C -14.6 °C 33948 hPa SW 33.6 km/h 51.8 km/h 89 % 12.7 mm
14:32 -13.6 °C -14.5 °C 33948 hPa West 31.1 km/h 64.7 km/h 89 % 20.32 mm
14:37 -13.6 °C -14.5 °C 33937.9 hPa SW 54.4 km/h 64.7 km/h 89 % 20.32 mm
14:42 -13.6 °C -14.6 °C 33937.9 hPa WSW 10.3 km/h 54.4 km/h 89 % 20.32 mm
14:47 -13.6 °C -14.7 °C 33937.9 hPa WSW 25.9 km/h 54.4 km/h 88 % 20.32 mm
14:52 -13.6 °C -14.8 °C 33937.9 hPa West 33.6 km/h 54.4 km/h 86 % 20.32 mm
14:57 -13.7 °C -15 °C 33924.3 hPa WSW 20.8 km/h 54.4 km/h 85 % 12.7 mm
15:02 -13.7 °C -15 °C 33924.3 hPa West 25.9 km/h 54.4 km/h 85 % 12.7 mm
15:07 -13.7 °C -15.1 °C 33937.9 hPa SW 12.9 km/h 54.4 km/h 85 % 12.7 mm
15:12 -13.7 °C -14.9 °C 33924.3 hPa WSW 23.3 km/h 44.1 km/h 86 % 7.62 mm
15:17 -13.8 °C -15 °C 33914.2 hPa SW 20.8 km/h 44.1 km/h 86 % 7.62 mm
15:22 -13.8 °C -14.9 °C 33914.2 hPa SW 10.3 km/h 44.1 km/h 87 % 0 mm
15:27 -13.8 °C -14.9 °C 33914.2 hPa WSW 28.5 km/h 36.2 km/h 87 % 0 mm
15:32 -13.8 °C -14.9 °C 33900.6 hPa SW 15.6 km/h 33.6 km/h 87 % 0 mm
15:37 -13.9 °C -14.9 °C 33900.6 hPa SW 20.8 km/h 33.6 km/h 88 % 0 mm
15:42 -13.9 °C -14.9 °C 33900.6 hPa SSW 10.3 km/h 31.1 km/h 89 % 0 mm
15:47 -13.9 °C -14.9 °C 33900.6 hPa SW 23.3 km/h 31.1 km/h 89 % 0 mm
15:52 -13.9 °C -14.9 °C 33900.6 hPa South 12.9 km/h 25.9 km/h 89 % 0 mm
15:57 -13.9 °C -14.8 °C 33890.5 hPa SW 10.3 km/h 31.1 km/h 90 % 0 mm
16:02 -13.8 °C -14.8 °C 33890.5 hPa WSW 25.9 km/h 31.1 km/h 89 % 0 mm
16:07 -13.8 °C -14.8 °C 33890.5 hPa SSW 15.6 km/h 31.1 km/h 89 % 0 mm
16:12 -13.8 °C -14.8 °C 33880.3 hPa West 18.2 km/h 28.5 km/h 89 % 0 mm
16:17 -13.8 °C -14.8 °C 33880.3 hPa SSW 7.7 km/h 36.2 km/h 89 % 0 mm
16:22 -13.9 °C -14.7 °C 33880.3 hPa WSW 10.3 km/h 36.2 km/h 90 % 7.62 mm
16:27 -13.9 °C -14.7 °C 33880.3 hPa WSW 15.6 km/h 28.5 km/h 91 % 7.62 mm
16:32 -14 °C -14.8 °C 33880.3 hPa WNW 12.9 km/h 28.5 km/h 91 % 20.32 mm
16:42 -14.3 °C -15.2 °C 33880.3 hPa WNW 25.9 km/h 38.8 km/h 90 % 38.1 mm
16:47 -14.3 °C -15.2 °C 33866.8 hPa WNW 15.6 km/h 38.8 km/h 90 % 50.8 mm
16:52 -14.3 °C -15.2 °C 33866.8 hPa WSW 23.3 km/h 49.2 km/h 90 % 58.42 mm
16:57 -14.3 °C -15.2 °C 33866.8 hPa WSW 23.3 km/h 49.2 km/h 90 % 58.42 mm
17:02 -14.3 °C -15.2 °C 33880.3 hPa West 15.6 km/h 49.2 km/h 90 % 58.42 mm
17:07 -14.3 °C -15.1 °C 33880.3 hPa West 18.2 km/h 31.1 km/h 91 % 58.42 mm
17:12 -14.3 °C -15.1 °C 33866.8 hPa WSW 7.7 km/h 31.1 km/h 91 % 58.42 mm
17:22 -14.4 °C -15.1 °C 33866.8 hPa SW 23.3 km/h 25.9 km/h 92 % 63.5 mm
17:27 -14.4 °C -14.9 °C 33856.6 hPa West 12.9 km/h 28.5 km/h 93 % 58.42 mm
17:32 -14.4 °C -14.9 °C 33866.8 hPa WSW 12.9 km/h 28.5 km/h 93 % 58.42 mm
17:37 -14.4 °C -14.9 °C 33866.8 hPa West 5.1 km/h 28.5 km/h 93 % 45.72 mm
17:42 -14.4 °C -15 °C 33856.6 hPa West 7.7 km/h 20.8 km/h 93 % 33.02 mm
17:52 -14.4 °C -14.9 °C 33843.1 hPa WSW 7.7 km/h 15.6 km/h 94 % 33.02 mm
18:02 -14.4 °C -14.9 °C 33843.1 hPa WSW 2.6 km/h 15.6 km/h 94 % 38.1 mm
18:12 -14.4 °C -14.9 °C 33843.1 hPa SW 15.6 km/h 23.3 km/h 94 % 33.02 mm
18:17 -14.4 °C -14.9 °C 33843.1 hPa SW 15.6 km/h 23.3 km/h 94 % 33.02 mm
18:27 -14.4 °C -15.1 °C 33843.1 hPa West 10.3 km/h 41.4 km/h 92 % 33.02 mm
18:32 -14.4 °C -15.1 °C 33843.1 hPa West 7.7 km/h 41.4 km/h 92 % 33.02 mm
18:37 -14.5 °C -15.2 °C 33843.1 hPa West 7.7 km/h 46.7 km/h 92 % 38.1 mm
18:42 -14.5 °C -15.2 °C 33843.1 hPa WSW 10.3 km/h 33.6 km/h 92 % 38.1 mm
18:47 -14.5 °C -15.1 °C 33832.9 hPa SSW 5.1 km/h 20.8 km/h 93 % 38.1 mm
18:52 -14.5 °C -15.1 °C 33822.8 hPa SSW 2.6 km/h 20.8 km/h 93 % 50.8 mm
18:57 -14.5 °C -15 °C 33822.8 hPa SW 12.9 km/h 20.8 km/h 94 % 45.72 mm
19:02 -14.5 °C -15 °C 33809.2 hPa WSW 12.9 km/h 25.9 km/h 94 % 45.72 mm
19:07 -14.5 °C -15 °C 33809.2 hPa SW 12.9 km/h 25.9 km/h 94 % 50.8 mm
19:12 -14.5 °C -15 °C 33809.2 hPa WSW 5.1 km/h 23.3 km/h 94 % 58.42 mm
19:17 -14.5 °C -15 °C 33822.8 hPa WSW 20.8 km/h 23.3 km/h 94 % 63.5 mm
19:22 -14.9 °C -15.7 °C 33843.1 hPa WNW 51.8 km/h 54.4 km/h 90 % 76.2 mm
19:27 -15.3 °C -16 °C 33832.9 hPa NW 31.1 km/h 54.4 km/h 92 % 116.84 mm
19:32 -15.4 °C -16.2 °C 33822.8 hPa West 10.3 km/h 54.4 km/h 91 % 129.54 mm
19:37 -15.5 °C -16.2 °C 33822.8 hPa WNW 18.2 km/h 51.8 km/h 92 % 121.92 mm
19:42 -15.5 °C -16.2 °C 33822.8 hPa West 15.6 km/h 46.7 km/h 92 % 129.54 mm
19:47 -15.4 °C -16.1 °C 33822.8 hPa WNW 18.2 km/h 38.8 km/h 92 % 121.92 mm
19:52 -15.4 °C -16.1 °C 33832.9 hPa WSW 18.2 km/h 33.6 km/h 92 % 116.84 mm
19:57 -15.4 °C -16.1 °C 33822.8 hPa WNW 15.6 km/h 33.6 km/h 92 % 121.92 mm
20:02 -15.4 °C -16.1 °C 33822.8 hPa WNW 18.2 km/h 31.1 km/h 92 % 121.92 mm
20:07 -15.4 °C -15.9 °C 33832.9 hPa WNW 12.9 km/h 31.1 km/h 93 % 129.54 mm
20:12 -15.4 °C -15.9 °C 33832.9 hPa WNW 20.8 km/h 31.1 km/h 93 % 129.54 mm
20:22 -15.2 °C -15.9 °C 33809.2 hPa West 31.1 km/h 51.8 km/h 91 % 63.5 mm
20:27 -15.1 °C -15.9 °C 33822.8 hPa West 41.4 km/h 51.8 km/h 90 % 58.42 mm
20:37 -15.1 °C -15.8 °C 33822.8 hPa WNW 25.9 km/h 49.2 km/h 91 % 45.72 mm
20:47 -15 °C -15.8 °C 33832.9 hPa West 44.1 km/h 51.8 km/h 90 % 45.72 mm
20:52 -14.9 °C -15.8 °C 33832.9 hPa West 20.8 km/h 57 km/h 90 % 50.8 mm
20:57 -14.9 °C -15.9 °C 33832.9 hPa West 28.5 km/h 64.7 km/h 89 % 45.72 mm
21:02 -14.9 °C -15.8 °C 33832.9 hPa West 20.8 km/h 64.7 km/h 90 % 38.1 mm
21:07 -14.9 °C -15.8 °C 33832.9 hPa West 23.3 km/h 64.7 km/h 90 % 33.02 mm
21:12 -14.9 °C -15.8 °C 33822.8 hPa West 23.3 km/h 44.1 km/h 90 % 25.4 mm
21:17 -14.9 °C -15.8 °C 33822.8 hPa WNW 31.1 km/h 44.1 km/h 90 % 12.7 mm
21:22 -14.9 °C -15.8 °C 33822.8 hPa WSW 28.5 km/h 54.4 km/h 89 % 12.7 mm
21:27 -14.9 °C -15.8 °C 33822.8 hPa WSW 36.2 km/h 62.1 km/h 89 % 12.7 mm
21:32 -14.9 °C -15.8 °C 33822.8 hPa WSW 25.9 km/h 62.1 km/h 89 % 12.7 mm
21:42 -14.9 °C -15.8 °C 33809.2 hPa SW 20.8 km/h 54.4 km/h 90 % 7.62 mm
21:47 -15 °C -15.7 °C 33809.2 hPa West 23.3 km/h 54.4 km/h 91 % 7.62 mm
21:52 -15 °C -15.7 °C 33809.2 hPa West 18.2 km/h 41.4 km/h 91 % 0 mm
21:57 -15 °C -15.7 °C 33822.8 hPa WSW 23.3 km/h 36.2 km/h 92 % 0 mm
22:02 -14.9 °C -15.6 °C 33822.8 hPa SW 12.9 km/h 41.4 km/h 92 % 0 mm
22:22 -14.8 °C -15.7 °C 33822.8 hPa WSW 12.9 km/h 44.1 km/h 90 % 0 mm
22:32 -14.8 °C -15.8 °C 33832.9 hPa WSW 20.8 km/h 54.4 km/h 89 % 0 mm
22:37 -14.8 °C -15.8 °C 33832.9 hPa West 20.8 km/h 54.4 km/h 89 % 0 mm
22:42 -14.8 °C -15.8 °C 33832.9 hPa West 31.1 km/h 54.4 km/h 89 % 0 mm
22:47 -14.8 °C -15.8 °C 33843.1 hPa SW 20.8 km/h 44.1 km/h 89 % 0 mm
22:52 -14.8 °C -15.7 °C 33843.1 hPa West 18.2 km/h 49.2 km/h 90 % 0 mm
22:57 -14.9 °C -15.7 °C 33843.1 hPa WSW 36.2 km/h 49.2 km/h 90 % 0 mm
23:02 -14.9 °C -15.7 °C 33843.1 hPa West 10.3 km/h 49.2 km/h 90 % 0 mm
23:07 -14.9 °C -15.7 °C 33843.1 hPa WSW 20.8 km/h 41.4 km/h 90 % 0 mm
23:12 -14.9 °C -15.7 °C 33843.1 hPa SW 18.2 km/h 41.4 km/h 90 % 0 mm
23:17 -14.9 °C -15.7 °C 33843.1 hPa SW 18.2 km/h 41.4 km/h 90 % 0 mm
23:22 -14.9 °C -15.8 °C 33843.1 hPa WSW 25.9 km/h 41.4 km/h 90 % 0 mm
23:27 -14.9 °C -15.9 °C 33843.1 hPa WNW 18.2 km/h 41.4 km/h 89 % 0 mm
23:42 -14.9 °C -15.9 °C 33843.1 hPa WSW 23.3 km/h 51.8 km/h 88 % 0 mm
23:47 -14.9 °C -15.9 °C 33843.1 hPa West 18.2 km/h 51.8 km/h 88 % 0 mm
23:52 -14.9 °C -15.9 °C 33832.9 hPa West 28.5 km/h 51.8 km/h 89 % 0 mm
23:57 -15 °C -16 °C 33832.9 hPa West 15.6 km/h 46.7 km/h 88 % 0 mm
Meteo18
Compliments of Weather Underground - 4 mb

Script developed by  Jim McMurry - jmcmurry@mwt.net Adapted for the template by  Wim van der Kuil - Leuven-Template.eu

You find our weather info also at:

European Weather Network

Weather Underground

Equipment we use:

Weather-station
Davis Vue

Weather-program
Meteobridge

Weather-server
Raspberry PI 2 B+

Provider
1 and 1

Davis Vue

Meteobridge

Raspberry PI 2 B+

1 and 1